Time;durP1;ratioP1;P1;durP2;ratioP2;P2;SDS_P1;SDS_P2;PMS_P1;PMS_P2;Temp;Humidity;BMP_temperature;BMP_pressure;BME280_temperature;BME280_humidity;BME280_pressure;Samples;Min_cycle;Max_cycle;Signal;HPM_P1;HPM_P2
2022/01/23 00:00:05;;;;;;;2.10;1.40;;;;;;;;;;4986550;28;20379;-37
2022/01/23 00:02:33;;;;;;;2.67;1.30;;;;;;;;;;4986028;28;20053;-39
2022/01/23 00:05:05;;;;;;;1.98;1.00;;;;;;;;;;4985955;28;20497;-34
2022/01/23 00:07:31;;;;;;;1.58;0.90;;;;;;;;;;4986210;28;20116;-36
2022/01/23 00:09:57;;;;;;;1.73;1.27;;;;;;;;;;4985265;28;20410;-31
2022/01/23 00:12:25;;;;;;;2.17;1.10;;;;;;;;;;4985691;28;20484;-35
2022/01/23 00:17:35;;;;;;;1.58;1.23;;;;;;;;;;4985828;28;20444;-38
2022/01/23 00:20:06;;;;;;;1.45;1.25;;;;;;;;;;4985834;28;20034;-37
2022/01/23 00:22:57;;;;;;;1.73;1.20;;;;;;;;;;4985707;28;20432;-38
2022/01/23 00:30:47;;;;;;;1.83;1.30;;;;;;;;;;4985891;28;20045;-32
2022/01/23 00:33:13;;;;;;;1.15;1.00;;;;;;;;;;4985215;28;20046;-35
2022/01/23 00:35:39;;;;;;;1.52;1.05;;;;;;;;;;4985569;28;20041;-38
2022/01/23 00:38:05;;;;;;;1.80;1.20;;;;;;;;;;4985176;28;20026;-38
2022/01/23 00:40:31;;;;;;;1.42;1.00;;;;;;;;;;4985805;28;20113;-35
2022/01/23 00:42:58;;;;;;;2.05;1.45;;;;;;;;;;4985342;28;20142;-38
2022/01/23 00:45:31;;;;;;;1.63;1.17;;;;;;;;;;4983701;28;20038;-38
2022/01/23 00:48:02;;;;;;;1.95;1.20;;;;;;;;;;4985899;28;20886;-38
2022/01/23 00:50:28;;;;;;;1.40;1.00;;;;;;;;;;4985227;28;20122;-35
2022/01/23 00:52:54;;;;;;;1.23;0.85;;;;;;;;;;4985039;28;20061;-39
2022/01/23 00:55:19;;;;;;;1.52;0.85;;;;;;;;;;4985286;28;20066;-37
2022/01/23 00:57:45;;;;;;;1.48;1.17;;;;;;;;;;4984725;28;20072;-37
2022/01/23 01:00:11;;;;;;;2.55;1.20;;;;;;;;;;4984975;28;20030;-38
2022/01/23 01:02:37;;;;;;;1.25;0.80;;;;;;;;;;4984745;28;20046;-36
2022/01/23 01:05:03;;;;;;;1.20;1.00;;;;;;;;;;4984952;28;20066;-37
2022/01/23 01:07:29;;;;;;;1.00;0.90;;;;;;;;;;4984986;28;20029;-36
2022/01/23 01:09:59;;;;;;;2.17;0.88;;;;;;;;;;4985182;28;20026;-37
2022/01/23 01:12:32;;;;;;;1.20;0.98;;;;;;;;;;4984608;28;20096;-37
2022/01/23 01:15:54;;;;;;;1.35;0.93;;;;;;;;;;4984525;28;20482;-37
2022/01/23 01:31:30;;;;;;;1.48;1.05;;;;;;;;;;4984244;28;20093;-40
2022/01/23 01:34:06;;;;;;;1.08;0.93;;;;;;;;;;4989065;28;20048;-33
2022/01/23 01:39:00;;;;;;;1.52;0.90;;;;;;;;;;5003425;28;20026;-34
2022/01/23 01:41:26;;;;;;;1.30;0.75;;;;;;;;;;5002515;28;20531;-34
2022/01/23 01:43:52;;;;;;;1.60;1.08;;;;;;;;;;5003699;28;20500;-38
2022/01/23 01:46:18;;;;;;;1.05;0.70;;;;;;;;;;5003536;28;20030;-39
2022/01/23 01:48:44;;;;;;;1.20;0.90;;;;;;;;;;5003412;28;20026;-36
2022/01/23 01:51:14;;;;;;;1.17;0.80;;;;;;;;;;5003202;28;20034;-35
2022/01/23 01:53:39;;;;;;;1.58;1.00;;;;;;;;;;5002388;28;20116;-33
2022/01/23 01:56:06;;;;;;;1.20;0.80;;;;;;;;;;5003412;28;20144;-33
2022/01/23 02:01:01;;;;;;;1.25;0.88;;;;;;;;;;4983890;28;20042;-37
2022/01/23 02:08:55;;;;;;;0.80;0.70;;;;;;;;;;4984214;28;20038;-37
2022/01/23 02:11:34;;;;;;;2.03;0.80;;;;;;;;;;4984001;28;20041;-37
2022/01/23 02:14:25;;;;;;;1.08;0.93;;;;;;;;;;4982500;28;20034;-38
2022/01/23 02:22:35;;;;;;;0.95;0.70;;;;;;;;;;4983346;28;20236;-33
2022/01/23 02:54:58;;;;;;;1.33;0.90;;;;;;;;;;4998398;28;20026;-36
2022/01/23 03:00:12;;;;;;;1.25;1.00;;;;;;;;;;4982851;28;20037;-39
2022/01/23 03:02:43;;;;;;;;;;;;;;;;;;4983830;28;20271;-36
2022/01/23 03:05:12;;;;;;;1.35;1.00;;;;;;;;;;4983456;28;19987;-40
2022/01/23 03:10:10;;;;;;;1.00;0.90;;;;;;;;;;4983358;28;20032;-36
2022/01/23 03:15:28;;;;;;;1.08;0.85;;;;;;;;;;4983111;28;20045;-36
2022/01/23 03:26:20;;;;;;;1.33;0.85;;;;;;;;;;4982930;28;20140;-37
2022/01/23 03:29:17;;;;;;;0.85;0.75;;;;;;;;;;4983282;28;20786;-36
2022/01/23 03:31:52;;;;;;;1.15;0.95;;;;;;;;;;4982700;28;20217;-37
2022/01/23 03:34:26;;;;;;;1.23;0.85;;;;;;;;;;4982803;28;20061;-34
2022/01/23 03:36:53;;;;;;;1.20;1.00;;;;;;;;;;4982899;28;20026;-37
2022/01/23 03:39:18;;;;;;;1.33;0.98;;;;;;;;;;4982403;28;20113;-36
2022/01/23 03:41:44;;;;;;;1.75;0.75;;;;;;;;;;4983090;28;20031;-35
2022/01/23 03:44:11;;;;;;;0.88;0.70;;;;;;;;;;4982979;28;20516;-37
2022/01/23 03:46:49;;;;;;;1.75;1.00;;;;;;;;;;4986375;28;20096;-37
2022/01/23 03:52:17;;;;;;;2.53;1.00;;;;;;;;;;4986537;28;20073;-35
2022/01/23 03:54:42;;;;;;;1.52;1.10;;;;;;;;;;4986370;28;20050;-37
2022/01/23 03:57:08;;;;;;;0.90;0.73;;;;;;;;;;4985032;28;20030;-36
2022/01/23 03:59:34;;;;;;;1.42;0.90;;;;;;;;;;5004213;28;20424;-34
2022/01/23 04:01:59;;;;;;;1.67;0.90;;;;;;;;;;5006101;28;20540;-38
2022/01/23 04:04:41;;;;;;;1.88;1.10;;;;;;;;;;5005509;28;20045;-36
2022/01/23 04:07:19;;;;;;;1.40;0.98;;;;;;;;;;5005422;28;20423;-38
2022/01/23 04:09:45;;;;;;;1.75;0.90;;;;;;;;;;5005580;28;20030;-37
2022/01/23 04:12:20;;;;;;;1.95;1.10;;;;;;;;;;5004824;28;20569;-36
2022/01/23 04:14:52;;;;;;;1.27;0.90;;;;;;;;;;5005449;28;20112;-36
2022/01/23 04:20:27;;;;;;;0.75;0.70;;;;;;;;;;5005329;28;20044;-35
2022/01/23 04:33:52;;;;;;;2.85;2.17;;;;;;;;;;5005035;28;20061;-36
2022/01/23 05:00:59;;;;;;;2.42;2.22;;;;;;;;;;5004268;28;20854;-37
2022/01/23 05:06:10;;;;;;;2.85;2.35;;;;;;;;;;5004174;28;20574;-39
2022/01/23 05:08:37;;;;;;;4.32;2.22;;;;;;;;;;5001345;28;20479;-39
2022/01/23 05:11:04;;;;;;;3.22;2.50;;;;;;;;;;5004115;28;20026;-39
2022/01/23 05:13:30;;;;;;;5.13;2.40;;;;;;;;;;5003183;28;20060;-37
2022/01/23 05:15:55;;;;;;;4.22;2.40;;;;;;;;;;5004237;28;20515;-36
2022/01/23 05:18:21;;;;;;;6.35;2.58;;;;;;;;;;5003978;28;20069;-33
2022/01/23 05:20:49;;;;;;;3.92;2.20;;;;;;;;;;5003066;28;20034;-36
2022/01/23 05:23:15;;;;;;;4.20;2.30;;;;;;;;;;4995588;28;20492;-36
2022/01/23 05:25:41;;;;;;;2.65;2.25;;;;;;;;;;4984733;28;20023;-40
2022/01/23 05:28:07;;;;;;;2.80;2.20;;;;;;;;;;4984681;28;20034;-35
2022/01/23 05:30:34;;;;;;;2.45;1.90;;;;;;;;;;4984576;28;20049;-38
2022/01/23 05:33:00;;;;;;;4.35;2.10;;;;;;;;;;4984579;28;20046;-39
2022/01/23 05:35:28;;;;;;;3.22;2.33;;;;;;;;;;4984646;28;20034;-35
2022/01/23 05:37:53;;;;;;;2.78;2.15;;;;;;;;;;4985207;28;20026;-39
2022/01/23 05:40:21;;;;;;;2.75;2.05;;;;;;;;;;4997888;28;20404;-38
2022/01/23 05:42:46;;;;;;;2.90;2.22;;;;;;;;;;5003819;28;20113;-37
2022/01/23 05:45:12;;;;;;;3.33;2.00;;;;;;;;;;5003943;28;20474;-39
2022/01/23 05:47:37;;;;;;;2.65;2.10;;;;;;;;;;5003396;28;20485;-40
2022/01/23 05:50:04;;;;;;;2.30;2.10;;;;;;;;;;5003793;28;20119;-40
2022/01/23 05:52:31;;;;;;;2.53;2.10;;;;;;;;;;5003285;28;20049;-38
2022/01/23 05:54:57;;;;;;;3.13;2.20;;;;;;;;;;5006380;28;20829;-36
2022/01/23 05:57:22;;;;;;;2.67;2.08;;;;;;;;;;5019610;28;20038;-40
2022/01/23 05:59:48;;;;;;;2.00;1.70;;;;;;;;;;4984081;28;20537;-38
2022/01/23 06:02:13;;;;;;;3.75;2.17;;;;;;;;;;4988987;28;20096;-34
2022/01/23 06:04:39;;;;;;;2.05;1.73;;;;;;;;;;4993052;28;20034;-40
2022/01/23 06:07:05;;;;;;;3.25;1.90;;;;;;;;;;4993793;28;20163;-36
2022/01/23 06:09:30;;;;;;;2.17;1.80;;;;;;;;;;4991925;28;20174;-41
2022/01/23 06:11:56;;;;;;;2.20;1.65;;;;;;;;;;4995078;28;20670;-37
2022/01/23 06:14:21;;;;;;;2.97;1.80;;;;;;;;;;4997579;28;20022;-38
2022/01/23 06:16:47;;;;;;;2.60;1.90;;;;;;;;;;4996082;28;20021;-38
2022/01/23 06:19:13;;;;;;;2.03;1.80;;;;;;;;;;4993718;28;20477;-41
2022/01/23 06:21:38;;;;;;;2.25;1.98;;;;;;;;;;4991788;28;20072;-39
2022/01/23 06:24:11;;;;;;;2.13;1.60;;;;;;;;;;4997062;28;20037;-38
2022/01/23 06:26:56;;;;;;;2.05;1.77;;;;;;;;;;4998175;28;20036;-35
2022/01/23 06:29:25;;;;;;;2.75;1.83;;;;;;;;;;4993192;28;20038;-39
2022/01/23 06:31:55;;;;;;;2.47;2.00;;;;;;;;;;4995294;28;20034;-38
2022/01/23 06:34:21;;;;;;;4.20;1.85;;;;;;;;;;4993375;28;20555;-37
2022/01/23 06:36:50;;;;;;;2.35;1.90;;;;;;;;;;4993835;28;20560;-40
2022/01/23 06:39:18;;;;;;;2.85;2.03;;;;;;;;;;4997411;28;20032;-40
2022/01/23 06:41:44;;;;;;;2.10;1.77;;;;;;;;;;5011364;28;20503;-34
2022/01/23 06:44:10;;;;;;;1.98;1.58;;;;;;;;;;5002671;28;20037;-35
2022/01/23 06:46:36;;;;;;;2.10;1.80;;;;;;;;;;5003041;28;20420;-38
2022/01/23 06:49:01;;;;;;;4.95;2.03;;;;;;;;;;5002175;28;20028;-40
2022/01/23 06:51:27;;;;;;;2.53;2.00;;;;;;;;;;5012919;28;20030;-36
2022/01/23 06:53:52;;;;;;;2.50;2.20;;;;;;;;;;5006385;28;20032;-38
2022/01/23 06:56:18;;;;;;;4.65;1.80;;;;;;;;;;5002312;28;20536;-39
2022/01/23 06:58:44;;;;;;;4.32;1.70;;;;;;;;;;4989577;28;20116;-35
2022/01/23 07:01:10;;;;;;;3.17;2.13;;;;;;;;;;4996252;28;20037;-36
2022/01/23 07:03:35;;;;;;;4.18;2.00;;;;;;;;;;4998869;28;20104;-37
2022/01/23 07:06:01;;;;;;;2.92;1.80;;;;;;;;;;4990900;28;20018;-37
2022/01/23 07:08:26;;;;;;;2.50;1.77;;;;;;;;;;4994101;28;20034;-31
2022/01/23 07:10:52;;;;;;;3.42;1.90;;;;;;;;;;4994010;28;20466;-37
2022/01/23 07:13:18;;;;;;;7.55;1.80;;;;;;;;;;5002300;28;20040;-32
2022/01/23 07:15:43;;;;;;;7.18;2.13;;;;;;;;;;5002347;28;20026;-38
2022/01/23 07:18:09;;;;;;;8.60;2.08;;;;;;;;;;5003002;28;20049;-39
2022/01/23 07:20:34;;;;;;;4.10;1.90;;;;;;;;;;5002327;28;20030;-34
2022/01/23 07:23:00;;;;;;;10.32;1.98;;;;;;;;;;5005954;28;20125;-40
2022/01/23 07:25:26;;;;;;;9.13;2.53;;;;;;;;;;5006626;28;20543;-40
2022/01/23 07:27:55;;;;;;;8.50;2.10;;;;;;;;;;5006222;28;20033;-35
2022/01/23 07:30:36;;;;;;;8.73;2.20;;;;;;;;;;5006139;28;20026;-37
2022/01/23 07:33:02;;;;;;;9.48;2.38;;;;;;;;;;5005536;28;20120;-36
2022/01/23 07:35:27;;;;;;;8.07;2.05;;;;;;;;;;5006373;28;20136;-34
2022/01/23 07:37:53;;;;;;;2.65;1.80;;;;;;;;;;5005926;28;20033;-39
2022/01/23 07:40:21;;;;;;;4.32;2.00;;;;;;;;;;5005843;28;20057;-31
2022/01/23 07:42:47;;;;;;;8.93;2.15;;;;;;;;;;5006175;28;20030;-40
2022/01/23 07:45:12;;;;;;;3.40;1.77;;;;;;;;;;5006056;28;20463;-38
2022/01/23 07:47:38;;;;;;;8.23;2.25;;;;;;;;;;5004151;28;20030;-32
2022/01/23 07:50:06;;;;;;;3.22;1.65;;;;;;;;;;5005362;28;20116;-38
2022/01/23 07:52:35;;;;;;;8.50;2.03;;;;;;;;;;5006086;28;20026;-36
2022/01/23 07:55:02;;;;;;;5.82;2.35;;;;;;;;;;5005347;28;20030;-33
2022/01/23 07:57:28;;;;;;;6.88;1.95;;;;;;;;;;5005869;28;20084;-37
2022/01/23 07:59:53;;;;;;;6.68;2.70;;;;;;;;;;5005828;28;20072;-36
2022/01/23 08:02:19;;;;;;;9.10;4.38;;;;;;;;;;5005638;28;20416;-36
2022/01/23 08:04:44;;;;;;;52.35;27.80;;;;;;;;;;5020723;28;20057;-38
2022/01/23 08:07:20;;;;;;;121.20;62.17;;;;;;;;;;5005356;28;20501;-35
2022/01/23 08:09:45;;;;;;;116.85;62.70;;;;;;;;;;5005509;28;20041;-35
2022/01/23 08:12:11;;;;;;;126.07;69.07;;;;;;;;;;5005619;28;20041;-37
2022/01/23 08:14:36;;;;;;;121.82;68.07;;;;;;;;;;5005869;28;20484;-35
2022/01/23 08:17:02;;;;;;;112.38;64.30;;;;;;;;;;5005441;28;20033;-36
2022/01/23 08:19:28;;;;;;;117.20;63.67;;;;;;;;;;5004819;28;20036;-35
2022/01/23 08:21:53;;;;;;;106.60;58.67;;;;;;;;;;5004709;28;20040;-36
2022/01/23 08:24:19;;;;;;;106.40;57.17;;;;;;;;;;5004976;28;20034;-34
2022/01/23 08:26:44;;;;;;;101.30;53.38;;;;;;;;;;5004587;28;20022;-35
2022/01/23 08:29:10;;;;;;;91.28;51.00;;;;;;;;;;5004522;28;20038;-37
2022/01/23 08:31:35;;;;;;;87.40;48.38;;;;;;;;;;4998243;28;20492;-39
2022/01/23 08:34:01;;;;;;;86.43;46.28;;;;;;;;;;4992716;28;20532;-34
2022/01/23 08:36:27;;;;;;;82.57;43.83;;;;;;;;;;4995546;28;20032;-38
2022/01/23 08:38:53;;;;;;;75.60;41.65;;;;;;;;;;4998212;28;20188;-37
2022/01/23 08:43:44;;;;;;;68.22;37.85;;;;;;;;;;4996136;28;20026;-35
2022/01/23 08:46:09;;;;;;;72.25;36.80;;;;;;;;;;4996659;28;20025;-36
2022/01/23 08:48:35;;;;;;;60.95;34.50;;;;;;;;;;4995166;28;20724;-39
2022/01/23 08:51:00;;;;;;;59.05;32.33;;;;;;;;;;4994309;28;20034;-38
2022/01/23 08:53:26;;;;;;;52.53;29.70;;;;;;;;;;4997592;28;20080;-33
2022/01/23 08:55:52;;;;;;;54.53;30.70;;;;;;;;;;5022306;28;20025;-35
2022/01/23 08:58:17;;;;;;;56.22;29.08;;;;;;;;;;5007764;28;20476;-34
2022/01/23 09:00:43;;;;;;;59.38;29.90;;;;;;;;;;4996354;28;20080;-34
2022/01/23 09:03:08;;;;;;;49.13;26.90;;;;;;;;;;4994583;28;20030;-34
2022/01/23 09:05:34;;;;;;;54.88;27.40;;;;;;;;;;4995786;28;20035;-34
2022/01/23 09:08:00;;;;;;;53.15;26.92;;;;;;;;;;4991349;28;20025;-38
2022/01/23 09:10:27;;;;;;;48.75;25.02;;;;;;;;;;4992232;28;20026;-35
2022/01/23 09:13:28;;;;;;;43.00;23.73;;;;;;;;;;4985454;28;20038;-38
2022/01/23 09:15:42;;;;;;;41.60;23.75;;;;;;;;;;4995154;28;20038;-36
2022/01/23 09:18:07;;;;;;;44.45;23.08;;;;;;;;;;4993826;28;20025;-38
2022/01/23 09:20:33;;;;;;;41.05;22.33;;;;;;;;;;5001913;28;20645;-39
2022/01/23 09:22:58;;;;;;;37.47;21.42;;;;;;;;;;5004190;28;20040;-34
2022/01/23 09:25:24;;;;;;;38.67;20.38;;;;;;;;;;5004184;28;20099;-32
2022/01/23 09:27:50;;;;;;;35.47;19.45;;;;;;;;;;5004479;28;20029;-39
2022/01/23 09:30:20;;;;;;;40.60;20.30;;;;;;;;;;5003544;28;20034;-38
2022/01/23 09:32:49;;;;;;;32.97;18.70;;;;;;;;;;5004020;28;20065;-36
2022/01/23 09:35:15;;;;;;;31.63;18.13;;;;;;;;;;5002716;28;20042;-34
2022/01/23 09:37:41;;;;;;;31.40;17.38;;;;;;;;;;4996465;28;20236;-36
2022/01/23 09:40:08;;;;;;;36.47;17.77;;;;;;;;;;5001675;28;20037;-36
2022/01/23 09:42:35;;;;;;;26.67;15.93;;;;;;;;;;5003678;28;20084;-33
2022/01/23 09:45:04;;;;;;;30.15;17.00;;;;;;;;;;5002649;28;20500;-35
2022/01/23 09:47:29;;;;;;;30.90;16.27;;;;;;;;;;5003896;28;20659;-35
2022/01/23 09:49:55;;;;;;;29.63;15.68;;;;;;;;;;5000929;28;20045;-35
2022/01/23 09:52:21;;;;;;;27.88;14.57;;;;;;;;;;4992950;28;20022;-40
2022/01/23 09:54:56;;;;;;;24.00;14.48;;;;;;;;;;5002799;28;20041;-36
2022/01/23 09:57:24;;;;;;;22.70;13.13;;;;;;;;;;5001548;28;20030;-36
2022/01/23 09:59:52;;;;;;;24.33;13.45;;;;;;;;;;5001529;28;20508;-37
2022/01/23 10:02:18;;;;;;;29.88;13.55;;;;;;;;;;5001332;28;20030;-32
2022/01/23 10:04:43;;;;;;;22.00;12.45;;;;;;;;;;5002212;28;20026;-35
2022/01/23 10:07:09;;;;;;;22.60;12.77;;;;;;;;;;5001693;28;20026;-37
2022/01/23 10:09:35;;;;;;;21.52;12.32;;;;;;;;;;5003739;28;20069;-31
2022/01/23 10:12:02;;;;;;;23.35;11.95;;;;;;;;;;4993887;28;20523;-37
2022/01/23 10:14:27;;;;;;;18.13;10.80;;;;;;;;;;4995561;28;20026;-36
2022/01/23 10:16:53;;;;;;;24.58;11.93;;;;;;;;;;4985942;28;20168;-37
2022/01/23 10:19:18;;;;;;;17.75;10.52;;;;;;;;;;4982986;28;20030;-40
2022/01/23 10:21:44;;;;;;;19.55;10.45;;;;;;;;;;4982359;28;20038;-33
2022/01/23 10:24:13;;;;;;;20.17;10.75;;;;;;;;;;4983772;28;20023;-35
2022/01/23 10:26:48;;;;;;;15.98;9.90;;;;;;;;;;4990456;28;20045;-40
2022/01/23 10:29:25;;;;;;;21.85;10.23;;;;;;;;;;4987692;28;20030;-38
2022/01/23 10:32:01;;;;;;;24.15;11.85;;;;;;;;;;4990826;28;20033;-34
2022/01/23 10:34:39;;;;;;;25.13;12.13;;;;;;;;;;5002928;28;20065;-37
2022/01/23 10:37:05;;;;;;;26.88;12.77;;;;;;;;;;4998585;28;20551;-35
2022/01/23 10:39:46;;;;;;;25.90;12.13;;;;;;;;;;4982732;28;20026;-33
2022/01/23 10:42:29;;;;;;;28.70;13.23;;;;;;;;;;4990709;28;20791;-39
2022/01/23 10:47:48;;;;;;;28.25;14.30;;;;;;;;;;4992821;28;20028;-37
2022/01/23 10:50:14;;;;;;;39.17;15.18;;;;;;;;;;4991112;28;20460;-40
2022/01/23 10:52:42;;;;;;;33.58;16.27;;;;;;;;;;4982290;28;20049;-34
2022/01/23 10:55:11;;;;;;;35.03;16.33;;;;;;;;;;4983789;28;20035;-31
2022/01/23 10:57:44;;;;;;;34.97;16.02;;;;;;;;;;4997157;28;20037;-36
2022/01/23 11:00:26;;;;;;;32.60;16.88;;;;;;;;;;4982479;28;20034;-31
2022/01/23 11:02:51;;;;;;;26.55;14.25;;;;;;;;;;4982835;28;20030;-33
2022/01/23 11:05:19;;;;;;;27.88;13.60;;;;;;;;;;4982316;28;20191;-36
2022/01/23 11:07:46;;;;;;;27.42;14.73;;;;;;;;;;4982662;28;20142;-39
2022/01/23 11:10:13;;;;;;;25.73;14.23;;;;;;;;;;4982345;28;20040;-33
2022/01/23 11:17:59;;;;;;;21.15;12.18;;;;;;;;;;5005434;28;20041;-36
2022/01/23 11:20:44;;;;;;;34.63;14.27;;;;;;;;;;5001426;28;20762;-34
2022/01/23 11:23:17;;;;;;;26.70;14.30;;;;;;;;;;5006866;28;20029;-36
2022/01/23 11:26:02;;;;;;;25.90;14.20;;;;;;;;;;5021475;28;20029;-37
2022/01/23 11:28:45;;;;;;;28.10;15.60;;;;;;;;;;5021783;28;20494;-35
2022/01/23 11:31:18;;;;;;;24.08;13.77;;;;;;;;;;5019348;28;20557;-37
2022/01/23 11:33:45;;;;;;;27.35;13.90;;;;;;;;;;5006357;28;20537;-37
2022/01/23 11:36:10;;;;;;;29.95;13.85;;;;;;;;;;5017733;28;20026;-36
2022/01/23 11:38:37;;;;;;;29.05;12.98;;;;;;;;;;5002134;28;20491;-35
2022/01/23 11:54:37;;;;;;;23.27;12.45;;;;;;;;;;4991565;28;20041;-35
2022/01/23 11:57:03;;;;;;;20.30;12.02;;;;;;;;;;4985584;28;20695;-33
2022/01/23 11:59:47;;;;;;;23.98;12.55;;;;;;;;;;4986851;28;20034;-36
2022/01/23 12:02:23;;;;;;;24.25;13.80;;;;;;;;;;5000650;28;20064;-34
2022/01/23 12:05:19;;;;;;;22.58;13.35;;;;;;;;;;5001615;28;20033;-34
2022/01/23 12:07:46;;;;;;;24.75;13.82;;;;;;;;;;5004260;28;20048;-37
2022/01/23 12:10:22;;;;;;;22.15;13.48;;;;;;;;;;5004799;28;20040;-30
2022/01/23 12:12:50;;;;;;;21.63;12.57;;;;;;;;;;5005416;28;20034;-30
2022/01/23 12:18:14;;;;;;;23.50;12.82;;;;;;;;;;5005107;28;20041;-38
2022/01/23 12:20:40;;;;;;;27.77;12.57;;;;;;;;;;5004899;28;20033;-33
2022/01/23 12:23:05;;;;;;;19.10;12.73;;;;;;;;;;5004995;28;20024;-36
2022/01/23 12:25:48;;;;;;;23.00;12.35;;;;;;;;;;5004621;28;20809;-34
2022/01/23 12:28:21;;;;;;;25.52;13.02;;;;;;;;;;5005066;28;20646;-34
2022/01/23 12:30:53;;;;;;;25.00;12.75;;;;;;;;;;5004590;28;20050;-33
2022/01/23 12:33:47;;;;;;;18.20;11.07;;;;;;;;;;5004255;28;20060;-35
2022/01/23 12:36:13;;;;;;;18.50;10.85;;;;;;;;;;5004250;28;20026;-34
2022/01/23 12:38:41;;;;;;;18.58;9.45;;;;;;;;;;5004786;28;20036;-32
2022/01/23 12:41:23;;;;;;;15.00;9.38;;;;;;;;;;5004152;28;20495;-38
2022/01/23 12:43:49;;;;;;;22.73;12.10;;;;;;;;;;5004708;28;20041;-32
2022/01/23 12:46:53;;;;;;;26.58;14.32;;;;;;;;;;5004416;28;20038;-38
2022/01/23 12:49:23;;;;;;;24.92;13.15;;;;;;;;;;5001898;28;20037;-34
2022/01/23 12:52:13;;;;;;;26.38;13.05;;;;;;;;;;4984498;28;20030;-37
2022/01/23 12:54:47;;;;;;;23.02;12.20;;;;;;;;;;5000655;28;20468;-30
2022/01/23 12:57:37;;;;;;;23.85;12.20;;;;;;;;;;5003908;28;20064;-32
2022/01/23 13:00:12;;;;;;;23.02;12.07;;;;;;;;;;4999789;28;20038;-34
2022/01/23 13:02:44;;;;;;;23.35;11.90;;;;;;;;;;4984403;28;20394;-33
2022/01/23 13:05:11;;;;;;;19.60;11.80;;;;;;;;;;4984375;28;20041;-31
2022/01/23 13:10:12;;;;;;;20.20;12.02;;;;;;;;;;5003681;28;20112;-37
2022/01/23 13:31:05;;;;;;;31.52;14.43;;;;;;;;;;5003732;28;20187;-37
2022/01/23 13:33:31;;;;;;;24.75;14.93;;;;;;;;;;5008258;28;20045;-33
2022/01/23 13:36:00;;;;;;;27.02;15.77;;;;;;;;;;5013138;28;20028;-32
2022/01/23 13:38:26;;;;;;;28.90;16.20;;;;;;;;;;5003847;28;20462;-33
2022/01/23 13:41:00;;;;;;;29.40;16.13;;;;;;;;;;4991472;28;20117;-31
2022/01/23 13:59:54;;;;;;;33.47;16.80;;;;;;;;;;5003865;28;20475;-34
2022/01/23 14:02:24;;;;;;;27.70;15.48;;;;;;;;;;5004101;28;20030;-34
2022/01/23 14:05:06;;;;;;;39.08;15.52;;;;;;;;;;4998494;28;20882;-31
2022/01/23 14:07:32;;;;;;;29.70;15.68;;;;;;;;;;4999335;28;20049;-33
2022/01/23 14:10:08;;;;;;;28.45;15.55;;;;;;;;;;5002851;28;20030;-33
2022/01/23 14:12:34;;;;;;;30.67;15.02;;;;;;;;;;5002284;28;20916;-34
2022/01/23 14:15:05;;;;;;;29.20;15.63;;;;;;;;;;5003156;28;20022;-35
2022/01/23 14:17:35;;;;;;;29.70;16.98;;;;;;;;;;5000937;28;20087;-33
2022/01/23 14:20:08;;;;;;;29.30;15.77;;;;;;;;;;5002552;28;20025;-35
2022/01/23 14:22:38;;;;;;;22.35;14.95;;;;;;;;;;5002171;28;20033;-35
2022/01/23 14:25:17;;;;;;;25.15;15.43;;;;;;;;;;5001006;28;20038;-35
2022/01/23 14:27:46;;;;;;;27.95;15.48;;;;;;;;;;5000837;28;20041;-36
2022/01/23 14:30:15;;;;;;;27.90;15.80;;;;;;;;;;5001758;28;20049;-38
2022/01/23 14:32:47;;;;;;;24.60;16.25;;;;;;;;;;5002369;28;20135;-35
2022/01/23 14:35:18;;;;;;;25.75;16.17;;;;;;;;;;5001667;28;20033;-37
2022/01/23 14:37:45;;;;;;;25.50;16.08;;;;;;;;;;5002483;28;20034;-39
2022/01/23 14:40:23;;;;;;;27.58;15.95;;;;;;;;;;5002722;28;20036;-33
2022/01/23 14:43:06;;;;;;;25.35;15.82;;;;;;;;;;5002406;28;20860;-39
2022/01/23 14:45:40;;;;;;;26.38;14.13;;;;;;;;;;5002620;28;20068;-31
2022/01/23 14:48:06;;;;;;;26.02;16.10;;;;;;;;;;5002434;28;20551;-36
2022/01/23 14:50:34;;;;;;;25.00;14.90;;;;;;;;;;4990786;28;20029;-31
2022/01/23 14:53:21;;;;;;;32.05;15.38;;;;;;;;;;4983008;28;20041;-35
2022/01/23 14:55:48;;;;;;;28.20;15.10;;;;;;;;;;4988820;28;20037;-29
2022/01/23 14:58:17;;;;;;;27.90;15.05;;;;;;;;;;4994893;28;20077;-31
2022/01/23 15:00:43;;;;;;;25.13;14.02;;;;;;;;;;4995783;28;20594;-36
2022/01/23 15:03:08;;;;;;;18.90;12.50;;;;;;;;;;4981996;28;20129;-35
2022/01/23 15:05:35;;;;;;;23.50;12.90;;;;;;;;;;4982322;28;20169;-32
2022/01/23 15:08:04;;;;;;;30.17;12.93;;;;;;;;;;4982026;28;20057;-29
2022/01/23 15:10:29;;;;;;;33.42;12.77;;;;;;;;;;4995233;28;20040;-34
2022/01/23 15:12:55;;;;;;;19.83;12.32;;;;;;;;;;5000249;28;20034;-36
2022/01/23 15:15:20;;;;;;;20.13;12.63;;;;;;;;;;5007300;28;20039;-33
2022/01/23 15:17:46;;;;;;;24.80;12.40;;;;;;;;;;5021989;28;20044;-35
2022/01/23 15:20:11;;;;;;;19.27;11.95;;;;;;;;;;5002073;28;20051;-34
2022/01/23 15:22:37;;;;;;;24.70;11.23;;;;;;;;;;5001551;28;20715;-37
2022/01/23 15:25:04;;;;;;;19.00;11.00;;;;;;;;;;5002637;28;20083;-36
2022/01/23 15:27:30;;;;;;;22.05;11.63;;;;;;;;;;5002534;28;20030;-34
2022/01/23 15:29:55;;;;;;;22.90;10.95;;;;;;;;;;4993039;28;20034;-35
2022/01/23 15:32:21;;;;;;;17.15;11.05;;;;;;;;;;4998325;28;20069;-32
2022/01/23 15:34:46;;;;;;;32.58;10.77;;;;;;;;;;4999672;28;20078;-33
2022/01/23 15:37:14;;;;;;;21.38;10.07;;;;;;;;;;4989891;28;20034;-33
2022/01/23 15:39:40;;;;;;;18.50;9.25;;;;;;;;;;4991575;28;20046;-39
2022/01/23 15:42:06;;;;;;;15.45;9.15;;;;;;;;;;5006063;28;20888;-33
2022/01/23 15:44:32;;;;;;;25.73;9.77;;;;;;;;;;5004465;28;20042;-31
2022/01/23 15:46:58;;;;;;;15.10;8.88;;;;;;;;;;5006194;28;20026;-31
2022/01/23 15:49:23;;;;;;;23.95;9.27;;;;;;;;;;5005216;28;20041;-31
2022/01/23 15:51:49;;;;;;;18.27;9.05;;;;;;;;;;4997186;28;20022;-32
2022/01/23 15:54:15;;;;;;;12.98;8.48;;;;;;;;;;4986593;28;20030;-33
2022/01/23 15:56:41;;;;;;;23.70;7.78;;;;;;;;;;4986611;28;20822;-31
2022/01/23 15:59:07;;;;;;;15.80;9.20;;;;;;;;;;4986047;28;20030;-38
2022/01/23 16:01:34;;;;;;;13.73;7.20;;;;;;;;;;4986178;28;20128;-37
2022/01/23 16:04:00;;;;;;;18.67;8.07;;;;;;;;;;4986401;28;20073;-34
2022/01/23 16:06:25;;;;;;;16.00;7.63;;;;;;;;;;4986968;28;20062;-36
2022/01/23 16:08:51;;;;;;;25.63;8.10;;;;;;;;;;4997249;28;20037;-33
2022/01/23 16:11:17;;;;;;;13.30;7.65;;;;;;;;;;4994971;28;20332;-38
2022/01/23 16:13:42;;;;;;;17.17;8.65;;;;;;;;;;4999436;28;20069;-36
2022/01/23 16:16:08;;;;;;;20.63;8.60;;;;;;;;;;4996052;28;20022;-35
2022/01/23 16:18:33;;;;;;;19.95;8.43;;;;;;;;;;4989956;28;20085;-32
2022/01/23 16:20:59;;;;;;;10.25;7.63;;;;;;;;;;4985575;28;20046;-32
2022/01/23 16:23:24;;;;;;;18.90;8.00;;;;;;;;;;4986199;28;20061;-40
2022/01/23 16:25:52;;;;;;;15.63;7.95;;;;;;;;;;4986021;28;20030;-33
2022/01/23 16:28:21;;;;;;;16.73;8.20;;;;;;;;;;4985832;28;20034;-34
2022/01/23 16:30:48;;;;;;;18.05;8.27;;;;;;;;;;4985461;28;20062;-32
2022/01/23 16:33:14;;;;;;;14.07;7.18;;;;;;;;;;4985272;28;20532;-31
2022/01/23 16:35:39;;;;;;;11.48;7.22;;;;;;;;;;4985487;28;20092;-33
2022/01/23 16:38:05;;;;;;;14.05;7.32;;;;;;;;;;4985587;28;20424;-38
2022/01/23 16:40:30;;;;;;;11.90;7.07;;;;;;;;;;4993489;28;20113;-36
2022/01/23 16:42:56;;;;;;;10.98;7.32;;;;;;;;;;4994388;28;20091;-37
2022/01/23 16:45:21;;;;;;;14.32;7.18;;;;;;;;;;5001106;28;20049;-39
2022/01/23 16:47:47;;;;;;;15.63;7.30;;;;;;;;;;4998292;28;20033;-36
2022/01/23 16:50:13;;;;;;;13.38;6.82;;;;;;;;;;4998133;28;20034;-34
2022/01/23 16:52:38;;;;;;;15.38;6.72;;;;;;;;;;5007673;28;20072;-33
2022/01/23 16:55:05;;;;;;;11.43;6.70;;;;;;;;;;5005268;28;20057;-37
2022/01/23 16:57:30;;;;;;;9.20;5.93;;;;;;;;;;4993401;28;21006;-38
2022/01/23 16:59:56;;;;;;;14.63;6.88;;;;;;;;;;4991940;28;20044;-36
2022/01/23 17:02:21;;;;;;;14.02;7.20;;;;;;;;;;4996122;28;20486;-35
2022/01/23 17:04:47;;;;;;;14.90;6.57;;;;;;;;;;5006989;28;20029;-38
2022/01/23 17:07:12;;;;;;;14.55;6.53;;;;;;;;;;5004493;28;20116;-36
2022/01/23 17:09:38;;;;;;;14.07;6.40;;;;;;;;;;5003418;28;20033;-35
2022/01/23 17:12:05;;;;;;;14.02;6.72;;;;;;;;;;5004408;28;20450;-35
2022/01/23 17:14:31;;;;;;;14.75;6.40;;;;;;;;;;5001270;28;20504;-36
2022/01/23 17:16:56;;;;;;;11.68;6.25;;;;;;;;;;4994426;28;20037;-36
2022/01/23 17:19:22;;;;;;;20.02;6.82;;;;;;;;;;5004458;28;20021;-36
2022/01/23 17:21:47;;;;;;;14.93;6.18;;;;;;;;;;5004164;28;20066;-39
2022/01/23 17:24:13;;;;;;;16.42;6.45;;;;;;;;;;5004450;28;20092;-33
2022/01/23 17:26:38;;;;;;;14.63;6.18;;;;;;;;;;5003987;28;20503;-35
2022/01/23 17:29:04;;;;;;;17.52;6.95;;;;;;;;;;5004395;28;20096;-35
2022/01/23 17:31:29;;;;;;;32.95;14.38;;;;;;;;;;5003992;28;20022;-37
2022/01/23 17:33:55;;;;;;;46.75;19.25;;;;;;;;;;5003857;28;20050;-38
2022/01/23 17:36:20;;;;;;;47.38;19.15;;;;;;;;;;5003615;28;20030;-37
2022/01/23 17:38:46;;;;;;;47.08;18.67;;;;;;;;;;5004099;28;20079;-37
2022/01/23 17:41:12;;;;;;;37.53;17.23;;;;;;;;;;5003804;28;20697;-34
2022/01/23 17:43:38;;;;;;;37.10;15.68;;;;;;;;;;5003782;28;20025;-39
2022/01/23 17:46:06;;;;;;;31.75;15.02;;;;;;;;;;4999484;28;20038;-39
2022/01/23 17:50:57;;;;;;;38.42;14.00;;;;;;;;;;4989060;28;20115;-35